createdAt,value
2018-11-13T06:41:12.304Z,0
2018-11-13T06:41:44.390Z,0
2018-11-13T06:43:36.791Z,0
2018-11-13T06:44:08.878Z,0
2018-11-13T06:44:40.952Z,0
2018-11-13T06:45:13.048Z,0
2018-11-13T06:47:04.832Z,0
2018-11-13T06:47:37.053Z,0
2018-11-13T06:48:09.231Z,0
2018-11-13T06:48:41.337Z,0
2018-11-13T06:50:33.166Z,0
2018-11-13T06:51:05.273Z,0
2018-11-13T06:51:37.362Z,0
2018-11-13T06:52:09.477Z,0
2018-11-13T06:52:41.515Z,0
2018-11-13T06:53:13.668Z,0
2018-11-13T06:53:45.710Z,0
2018-11-13T06:55:38.401Z,5
2018-11-13T06:56:10.556Z,5
2018-11-13T06:56:42.621Z,5
2018-11-13T06:57:14.707Z,5
2018-11-13T06:57:46.790Z,5
2018-11-13T06:58:18.832Z,5
2018-11-13T06:58:50.877Z,5
2018-11-13T06:59:22.939Z,5
2018-11-13T06:59:55.020Z,5
2018-11-13T07:00:27.135Z,5
2018-11-13T07:00:59.235Z,5
2018-11-13T07:01:31.500Z,5
2018-11-13T07:02:03.587Z,5
2018-11-13T07:02:35.704Z,5
2018-11-13T07:03:07.808Z,5
2018-11-13T07:03:39.917Z,5
2018-11-13T07:04:12.070Z,5
2018-11-13T07:04:44.154Z,5
2018-11-13T07:05:16.320Z,5
2018-11-13T07:05:48.305Z,5
2018-11-13T07:06:20.497Z,5
2018-11-13T07:06:52.658Z,5
2018-11-13T07:07:24.791Z,5
2018-11-13T07:07:56.843Z,5
2018-11-13T07:08:28.879Z,5
2018-11-13T07:09:00.955Z,5
2018-11-13T07:09:33.154Z,10
2018-11-13T07:11:24.547Z,10
2018-11-13T07:11:56.627Z,10
2018-11-13T07:12:28.719Z,10
2018-11-13T07:14:20.116Z,10
2018-11-13T07:14:52.230Z,10
2018-11-13T07:15:24.295Z,10
2018-11-13T07:15:56.114Z,10
2018-11-13T07:16:28.182Z,10
2018-11-13T07:17:00.248Z,10
2018-11-13T07:17:32.326Z,10
2018-11-13T07:18:04.431Z,10
2018-11-13T07:18:36.632Z,10
2018-11-13T07:19:08.637Z,10
2018-11-13T07:19:40.720Z,10
2018-11-13T07:20:12.800Z,10
2018-11-13T07:20:44.955Z,10
2018-11-13T07:21:17.039Z,10
2018-11-13T07:21:49.119Z,10
2018-11-13T07:22:21.205Z,10
2018-11-13T07:22:53.277Z,10
2018-11-13T07:23:25.372Z,10
2018-11-13T07:23:57.480Z,10
2018-11-13T07:24:29.569Z,10
2018-11-13T07:25:01.639Z,10
2018-11-13T07:25:33.839Z,10
2018-11-13T07:26:05.958Z,10
2018-11-13T07:26:38.032Z,10
2018-11-13T07:27:10.177Z,10
2018-11-13T07:29:01.537Z,15
2018-11-13T07:29:33.614Z,15
2018-11-13T07:30:05.676Z,15
2018-11-13T07:30:37.772Z,15
2018-11-13T07:31:09.902Z,15
2018-11-13T07:31:41.963Z,15
2018-11-13T07:32:14.069Z,15
2018-11-13T07:32:46.130Z,15
2018-11-13T07:33:18.225Z,15
2018-11-13T07:33:50.288Z,15
2018-11-13T07:34:22.439Z,15
2018-11-13T07:34:54.427Z,15
2018-11-13T07:35:26.496Z,15
2018-11-13T07:35:58.615Z,15
2018-11-13T07:36:30.730Z,15
2018-11-13T07:37:02.831Z,15
2018-11-13T07:37:34.941Z,15
2018-11-13T07:38:06.991Z,20
2018-11-13T07:38:39.091Z,20
2018-11-13T07:39:11.176Z,20
2018-11-13T07:42:22.542Z,20
2018-11-13T07:42:54.621Z,20
2018-11-13T07:43:26.724Z,20
2018-11-13T07:43:58.828Z,20
2018-11-13T07:44:30.918Z,20
2018-11-13T07:45:03.009Z,20
2018-11-13T07:45:36.165Z,20
2018-11-13T07:46:08.254Z,20
2018-11-13T07:48:00.130Z,20
2018-11-13T07:48:32.155Z,20
2018-11-13T07:49:04.265Z,20
2018-11-13T07:50:55.915Z,20
2018-11-13T07:51:27.709Z,20
2018-11-13T07:51:59.769Z,20
2018-11-13T07:52:31.823Z,20
2018-11-13T07:53:03.930Z,20
2018-11-13T07:53:35.993Z,25
2018-11-13T07:54:08.113Z,35
2018-11-13T07:54:40.192Z,45
2018-11-13T07:55:12.260Z,45
2018-11-13T07:55:44.339Z,35
2018-11-13T07:56:16.441Z,35
2018-11-13T07:56:48.551Z,45
2018-11-13T07:57:20.653Z,35
2018-11-13T07:57:52.732Z,30
2018-11-13T07:58:24.871Z,35
2018-11-13T08:00:16.465Z,30
2018-11-13T08:02:07.817Z,30
2018-11-13T08:02:39.910Z,30
2018-11-13T08:03:11.988Z,30
2018-11-13T08:03:44.169Z,30
2018-11-13T08:04:16.200Z,30
2018-11-13T08:04:48.262Z,30
2018-11-13T08:05:20.309Z,35
2018-11-13T08:05:52.418Z,35
2018-11-13T08:07:44.047Z,40
2018-11-13T08:08:16.122Z,45
2018-11-13T08:08:48.229Z,50
2018-11-13T08:10:39.956Z,45
2018-11-13T08:11:12.042Z,40
2018-11-13T08:11:44.134Z,40
2018-11-13T08:12:16.218Z,40
2018-11-13T08:12:48.314Z,35
2018-11-13T08:13:20.648Z,40
2018-11-13T08:13:52.476Z,35
2018-11-13T08:14:24.536Z,35
2018-11-13T08:14:56.602Z,40
2018-11-13T08:15:28.699Z,40
2018-11-13T08:17:20.295Z,50
2018-11-13T08:17:52.417Z,40
2018-11-13T08:18:24.563Z,40
2018-11-13T08:20:15.979Z,30
2018-11-13T08:20:48.082Z,30
2018-11-13T08:21:20.169Z,30
2018-11-13T08:21:52.274Z,30
2018-11-13T08:22:24.376Z,40
2018-11-13T08:22:56.475Z,40
2018-11-13T08:23:28.565Z,40
2018-11-13T08:24:00.668Z,40
2018-11-13T08:24:32.839Z,40
2018-11-13T08:25:05.027Z,40
2018-11-13T08:25:37.147Z,40
2018-11-13T08:26:09.298Z,40
2018-11-13T08:26:41.363Z,40
2018-11-13T08:28:33.086Z,35
2018-11-13T08:29:05.272Z,45
2018-11-13T08:29:37.418Z,45
2018-11-13T08:30:09.583Z,40
2018-11-13T08:30:41.670Z,40
2018-11-13T08:31:13.765Z,35
2018-11-13T08:31:45.900Z,35
2018-11-13T08:32:18.001Z,35
2018-11-13T08:32:50.061Z,35
2018-11-13T08:33:22.173Z,35
2018-11-13T08:33:54.268Z,35
2018-11-13T08:34:26.367Z,35
2018-11-13T08:36:17.892Z,40
2018-11-13T08:36:49.979Z,40
2018-11-13T08:37:22.024Z,40
2018-11-13T08:39:13.649Z,40
2018-11-13T08:39:45.733Z,35
2018-11-13T08:40:17.844Z,30
2018-11-13T08:40:49.900Z,30
2018-11-13T08:41:21.988Z,30
2018-11-13T08:41:54.087Z,35
2018-11-13T08:42:26.190Z,35
2018-11-13T08:42:58.309Z,40
2018-11-13T08:43:30.402Z,40
2018-11-13T08:44:02.598Z,45
2018-11-13T08:44:34.645Z,45
2018-11-13T08:45:06.753Z,45
2018-11-13T08:45:38.899Z,40
2018-11-13T08:48:50.067Z,30
2018-11-13T08:50:41.615Z,30
2018-11-13T08:51:13.608Z,30
2018-11-13T08:51:45.810Z,30
2018-11-13T08:52:17.912Z,25
2018-11-13T08:52:50.025Z,30
2018-11-13T08:53:22.121Z,30
2018-11-13T08:53:54.212Z,30
2018-11-13T08:54:26.301Z,30
2018-11-13T08:54:58.362Z,30
2018-11-13T08:55:30.422Z,35
2018-11-13T08:56:02.521Z,40
2018-11-13T08:56:34.754Z,45
2018-11-13T08:57:06.836Z,45
2018-11-13T08:58:58.541Z,35
2018-11-13T08:59:30.573Z,35
2018-11-13T09:00:02.631Z,35
2018-11-13T09:01:54.074Z,35
2018-11-13T09:02:26.096Z,35
2018-11-13T09:02:58.354Z,40
2018-11-13T09:03:30.671Z,45
2018-11-13T09:04:02.792Z,45
2018-11-13T09:05:55.046Z,40
2018-11-13T09:06:27.176Z,40
2018-11-13T09:08:18.900Z,45
2018-11-13T09:08:50.993Z,45
2018-11-13T09:09:23.056Z,50
2018-11-13T09:11:14.560Z,45
2018-11-13T09:11:46.816Z,40
2018-11-13T09:12:18.820Z,40
2018-11-13T09:14:10.482Z,55
2018-11-13T09:14:42.588Z,60
2018-11-13T09:15:14.630Z,60
2018-11-13T09:15:47.466Z,55
2018-11-13T09:16:19.488Z,60
2018-11-13T09:16:51.537Z,65
2018-11-13T09:17:23.611Z,70
2018-11-13T09:17:55.738Z,65
2018-11-13T09:19:47.383Z,60
2018-11-13T09:20:19.401Z,60
2018-11-13T09:20:51.459Z,65
2018-11-13T09:21:23.494Z,65
2018-11-13T09:21:55.599Z,65
2018-11-13T09:22:27.682Z,65
2018-11-13T09:22:59.699Z,65
2018-11-13T09:23:31.807Z,65
2018-11-13T09:24:03.909Z,60
2018-11-13T09:24:35.964Z,65
2018-11-13T09:25:08.050Z,70
2018-11-13T09:25:40.161Z,60
2018-11-13T09:26:12.269Z,60
2018-11-13T09:26:44.379Z,65
2018-11-13T09:27:16.479Z,60
2018-11-13T09:27:48.556Z,75
2018-11-13T09:28:20.617Z,75
2018-11-13T09:28:52.671Z,60
2018-11-13T09:30:44.745Z,75
2018-11-13T09:31:16.606Z,65
2018-11-13T09:31:48.855Z,65
2018-11-13T09:32:21.091Z,65
2018-11-13T09:32:53.238Z,60
2018-11-13T09:33:25.298Z,55
2018-11-13T09:33:57.382Z,55
2018-11-13T09:34:29.483Z,55
2018-11-13T09:36:21.090Z,40
2018-11-13T09:36:53.188Z,40
2018-11-13T09:37:25.355Z,40
2018-11-13T09:37:57.393Z,40
2018-11-13T09:39:48.817Z,25
2018-11-13T09:40:20.883Z,25
2018-11-13T09:42:12.509Z,20
2018-11-13T09:42:44.609Z,20
2018-11-13T09:43:16.642Z,20
2018-11-13T09:43:48.726Z,20
2018-11-13T09:44:20.811Z,20
2018-11-13T09:44:52.996Z,15
2018-11-13T09:45:24.980Z,15
2018-11-13T09:47:16.675Z,15
2018-11-13T09:47:48.951Z,20
2018-11-13T09:48:20.893Z,20
2018-11-13T09:48:52.986Z,20
2018-11-13T09:49:25.058Z,25
2018-11-13T09:49:57.133Z,25
2018-11-13T09:50:29.290Z,25
2018-11-13T09:51:01.315Z,20
2018-11-13T09:51:33.425Z,20
2018-11-13T09:52:05.494Z,20
2018-11-13T09:52:37.574Z,20
2018-11-13T09:53:09.674Z,20
2018-11-13T09:53:41.813Z,20
2018-11-13T09:54:13.869Z,20
2018-11-13T09:54:45.941Z,20
2018-11-13T09:55:17.778Z,20
2018-11-13T09:55:49.873Z,20
2018-11-13T09:56:21.983Z,20
2018-11-13T09:56:54.139Z,20
2018-11-13T09:58:45.612Z,30
2018-11-13T09:59:17.713Z,25
2018-11-13T09:59:49.850Z,25
2018-11-13T10:00:22.252Z,30
2018-11-13T10:00:54.284Z,30
2018-11-13T10:01:26.993Z,30
2018-11-13T10:03:20.155Z,30
2018-11-13T10:03:52.185Z,30
2018-11-13T10:04:24.283Z,30
2018-11-13T10:04:56.429Z,30
2018-11-13T10:05:28.025Z,30
2018-11-13T10:06:00.022Z,30
2018-11-13T10:06:32.101Z,25
2018-11-13T10:07:04.170Z,25
2018-11-13T10:08:55.907Z,30
2018-11-13T10:09:28.012Z,30
2018-11-13T10:10:00.099Z,30
2018-11-13T10:10:32.243Z,35
2018-11-13T10:11:04.278Z,35
2018-11-13T10:11:36.376Z,40
2018-11-13T10:12:08.447Z,40
2018-11-13T10:12:40.501Z,50
2018-11-13T10:13:12.590Z,50
2018-11-13T10:13:44.686Z,50
2018-11-13T10:14:16.752Z,50
2018-11-13T10:14:48.877Z,55
2018-11-13T10:15:20.977Z,45
2018-11-13T10:15:53.057Z,40
2018-11-13T10:16:25.137Z,40
2018-11-13T10:16:57.314Z,40
2018-11-13T10:18:48.867Z,40
2018-11-13T10:19:20.937Z,45
2018-11-13T10:19:53.025Z,55
2018-11-13T10:20:25.104Z,75
2018-11-13T10:20:57.221Z,80
2018-11-13T10:21:29.316Z,80
2018-11-13T10:22:01.412Z,110
2018-11-13T10:22:33.504Z,95
2018-11-13T10:23:05.608Z,135
2018-11-13T10:23:37.712Z,115
2018-11-13T10:24:09.576Z,130
2018-11-13T10:24:41.709Z,145
2018-11-13T10:25:13.823Z,145
2018-11-13T10:25:45.908Z,150
2018-11-13T10:26:18.124Z,150
2018-11-13T10:26:50.146Z,160
2018-11-13T10:28:41.494Z,155
2018-11-13T10:29:13.587Z,165
2018-11-13T10:31:05.112Z,140
2018-11-13T10:31:37.202Z,100
2018-11-13T10:32:09.309Z,150
2018-11-13T10:32:41.404Z,105
2018-11-13T10:33:13.513Z,155
2018-11-13T10:33:45.622Z,150
2018-11-13T10:34:17.701Z,165
2018-11-13T10:34:49.810Z,160
2018-11-13T10:35:21.886Z,125
2018-11-13T10:35:53.980Z,120
2018-11-13T10:36:26.098Z,135
2018-11-13T10:36:58.169Z,115
2018-11-13T10:37:30.278Z,160
2018-11-13T10:38:02.374Z,165
2018-11-13T10:39:53.758Z,110
2018-11-13T10:40:25.971Z,155
2018-11-13T10:40:58.063Z,160
2018-11-13T10:41:30.094Z,125
2018-11-13T10:42:02.151Z,125
2018-11-13T10:42:34.224Z,145
2018-11-13T10:43:06.261Z,100
2018-11-13T10:43:38.355Z,140
2018-11-13T10:44:10.470Z,145
2018-11-13T10:44:42.565Z,140
2018-11-13T10:45:14.671Z,145
2018-11-13T10:45:46.737Z,145
2018-11-13T10:46:18.794Z,135
2018-11-13T10:46:50.922Z,120
2018-11-13T10:47:23.002Z,160
2018-11-13T10:47:55.334Z,160
2018-11-13T10:48:27.391Z,130
2018-11-13T10:48:59.523Z,155
2018-11-13T10:49:31.584Z,150
2018-11-13T10:51:23.130Z,125
2018-11-13T10:51:55.526Z,120
2018-11-13T10:52:27.650Z,105
2018-11-13T10:52:59.735Z,105
2018-11-13T10:53:31.847Z,110
2018-11-13T10:54:03.981Z,115
2018-11-13T10:54:36.045Z,120
2018-11-13T10:55:08.107Z,115
2018-11-13T10:55:40.178Z,105
2018-11-13T10:56:12.283Z,90
2018-11-13T10:56:44.368Z,80
2018-11-13T10:58:36.113Z,125
2018-11-13T10:59:08.209Z,145
2018-11-13T10:59:40.353Z,120
2018-11-13T11:00:12.712Z,105
2018-11-13T11:02:04.766Z,80
2018-11-13T11:02:37.329Z,75
2018-11-13T11:03:09.277Z,60
2018-11-13T11:03:41.182Z,45
2018-11-13T11:04:13.211Z,40
2018-11-13T11:04:45.313Z,40
2018-11-13T11:06:37.056Z,45
2018-11-13T11:07:09.135Z,55
2018-11-13T11:07:41.277Z,55
2018-11-13T11:08:13.390Z,50
2018-11-13T11:08:45.502Z,45
2018-11-13T11:09:17.620Z,45
2018-11-13T11:09:49.683Z,40
2018-11-13T11:10:21.767Z,45
2018-11-13T11:10:53.838Z,45
2018-11-13T11:11:26.016Z,45
2018-11-13T11:11:58.039Z,45
2018-11-13T11:12:30.139Z,45
2018-11-13T11:13:02.615Z,60
2018-11-13T11:13:34.869Z,70
2018-11-13T11:14:06.921Z,75
2018-11-13T11:14:39.001Z,80
2018-11-13T11:15:11.238Z,85
2018-11-13T11:15:43.321Z,90
2018-11-13T11:17:35.220Z,115
2018-11-13T11:18:07.352Z,115
2018-11-13T11:18:39.669Z,115
2018-11-13T11:19:11.751Z,115
2018-11-13T11:21:03.233Z,100
2018-11-13T11:21:35.341Z,115
2018-11-13T11:22:07.434Z,125
2018-11-13T11:22:39.654Z,130
2018-11-13T11:23:12.040Z,130
2018-11-13T11:25:03.548Z,175
2018-11-13T11:25:35.585Z,185
2018-11-13T11:27:27.043Z,145
2018-11-13T11:27:59.177Z,135
2018-11-13T11:28:31.242Z,125
2018-11-13T11:29:03.337Z,115
2018-11-13T11:29:35.592Z,105
2018-11-13T11:30:07.639Z,95
2018-11-13T11:31:59.145Z,75
2018-11-13T11:32:31.234Z,70
2018-11-13T11:33:03.344Z,65
2018-11-13T11:33:35.423Z,60
2018-11-13T11:34:07.514Z,60
2018-11-13T11:34:39.599Z,55
2018-11-13T11:36:30.980Z,50
2018-11-13T11:38:22.481Z,40
2018-11-13T11:38:54.652Z,35
2018-11-13T11:39:26.650Z,35
2018-11-13T11:39:58.714Z,30
2018-11-13T11:40:30.765Z,25
2018-11-13T11:41:02.883Z,20
2018-11-13T11:41:34.988Z,20
2018-11-13T11:42:07.069Z,20
2018-11-13T11:42:39.919Z,20
2018-11-13T11:43:12.022Z,20
2018-11-13T11:43:44.129Z,20
2018-11-13T11:44:16.254Z,20
2018-11-13T11:44:48.299Z,25
2018-11-13T11:45:20.407Z,25
2018-11-13T11:45:52.507Z,30
2018-11-13T11:46:24.619Z,35
2018-11-13T11:46:56.714Z,35
2018-11-13T11:47:28.811Z,35
2018-11-13T11:48:00.913Z,35
2018-11-13T11:48:33.030Z,30
2018-11-13T11:50:24.578Z,35
2018-11-13T11:50:56.677Z,35
2018-11-13T11:51:28.742Z,35
2018-11-13T11:52:00.854Z,35
2018-11-13T11:52:32.897Z,35
2018-11-13T11:53:05.007Z,35
2018-11-13T11:53:37.126Z,35
2018-11-13T11:54:09.180Z,35
2018-11-13T11:54:41.260Z,35
2018-11-13T11:55:13.342Z,35
2018-11-13T11:57:04.655Z,40
2018-11-13T11:58:56.055Z,60
2018-11-13T11:59:28.133Z,60
2018-11-13T12:01:19.586Z,60
2018-11-13T12:01:51.672Z,65
2018-11-13T12:02:23.860Z,60
2018-11-13T12:02:55.822Z,55
2018-11-13T12:03:27.918Z,75
2018-11-13T12:04:00.018Z,55
2018-11-13T12:04:32.090Z,55
2018-11-13T12:05:04.192Z,65
2018-11-13T12:05:36.288Z,75
2018-11-13T12:06:08.338Z,105
2018-11-13T12:06:40.442Z,220
2018-11-13T12:07:12.548Z,170
2018-11-13T12:09:04.079Z,215
2018-11-13T12:09:36.159Z,185
2018-11-13T12:10:08.241Z,255
2018-11-13T12:10:40.340Z,175
2018-11-13T12:11:12.415Z,310
2018-11-13T12:11:44.454Z,185
2018-11-13T12:12:16.645Z,210
2018-11-13T12:12:48.676Z,280
2018-11-13T12:13:20.766Z,1355
2018-11-13T12:13:52.887Z,310
2018-11-13T12:14:24.987Z,1425
2018-11-13T12:14:57.074Z,1440
2018-11-13T12:15:29.184Z,420
2018-11-13T12:16:01.303Z,255
2018-11-13T12:16:33.426Z,275
2018-11-13T12:17:05.499Z,210
2018-11-13T12:17:37.641Z,1075
2018-11-13T12:18:09.718Z,1305
2018-11-13T12:20:01.172Z,245
2018-11-13T12:20:33.334Z,520
2018-11-13T12:21:05.411Z,1030
2018-11-13T12:21:37.512Z,1210
2018-11-13T12:22:09.596Z,1260
2018-11-13T12:22:41.674Z,835
2018-11-13T12:23:13.815Z,1335
2018-11-13T12:23:45.839Z,1345
2018-11-13T12:24:17.915Z,1355
2018-11-13T12:24:50.024Z,1375
2018-11-13T12:25:22.085Z,220
2018-11-13T12:27:13.583Z,520
2018-11-13T12:27:45.676Z,665
2018-11-13T12:28:17.772Z,225
2018-11-13T12:28:49.889Z,1355
2018-11-13T12:29:22.008Z,1355
2018-11-13T12:29:54.060Z,1365
2018-11-13T12:30:26.133Z,1360
2018-11-13T12:30:58.219Z,1375
2018-11-13T12:31:30.337Z,1350
2018-11-13T12:32:02.430Z,1360
2018-11-13T12:32:34.524Z,1365
2018-11-13T12:33:06.603Z,1385
2018-11-13T12:33:38.691Z,1365
2018-11-13T12:34:10.804Z,1350
2018-11-13T12:34:43.059Z,1390
2018-11-13T12:35:15.024Z,1380
2018-11-13T12:35:47.111Z,1385
2018-11-13T12:37:38.754Z,1425
2018-11-13T12:38:10.845Z,1425
2018-11-13T12:38:42.929Z,510
2018-11-13T12:39:15.105Z,1400
2018-11-13T12:39:47.170Z,1400
2018-11-13T12:40:19.955Z,1430
2018-11-13T12:40:52.201Z,1420
2018-11-13T12:41:24.193Z,1440
2018-11-13T12:43:15.683Z,1360
2018-11-13T12:43:47.772Z,1335
2018-11-13T12:44:19.872Z,1365
2018-11-13T12:44:51.947Z,1350
2018-11-13T12:45:24.061Z,1360
2018-11-13T12:45:56.163Z,260
2018-11-13T12:46:28.316Z,205
2018-11-13T12:48:19.599Z,235
2018-11-13T12:48:51.887Z,645
2018-11-13T12:49:23.910Z,1380
2018-11-13T12:49:55.970Z,1210
2018-11-13T12:50:28.087Z,1265
2018-11-13T12:52:19.681Z,850
2018-11-13T12:52:51.785Z,235
2018-11-13T12:53:23.837Z,260
2018-11-13T12:53:55.936Z,135
2018-11-13T12:54:28.034Z,220
2018-11-13T12:55:00.102Z,95
2018-11-13T12:55:32.354Z,60
2018-11-13T12:56:04.446Z,45
2018-11-13T12:56:36.524Z,60
2018-11-13T12:57:08.603Z,40
2018-11-13T12:57:40.687Z,35
2018-11-13T12:59:32.022Z,60
2018-11-13T13:00:04.090Z,55
2018-11-13T13:00:36.967Z,45
2018-11-13T13:02:28.700Z,55
2018-11-13T13:03:00.781Z,55
2018-11-13T13:03:32.891Z,90
2018-11-13T13:04:04.974Z,340
2018-11-13T13:04:37.068Z,235
2018-11-13T13:05:09.164Z,400
2018-11-13T13:05:41.255Z,120
2018-11-13T13:06:13.335Z,100
2018-11-13T13:06:45.453Z,110
2018-11-13T13:07:17.537Z,95
2018-11-13T13:07:49.606Z,100
2018-11-13T13:08:21.708Z,140
2018-11-13T13:08:53.794Z,85
2018-11-13T13:09:25.932Z,80
2018-11-13T13:09:59.661Z,85
2018-11-13T13:10:31.756Z,100
2018-11-13T13:11:04.223Z,115
2018-11-13T13:12:55.617Z,100
2018-11-13T13:13:27.685Z,85
2018-11-13T13:13:59.822Z,80
2018-11-13T13:14:31.908Z,85
2018-11-13T13:15:03.994Z,85
2018-11-13T13:15:36.052Z,75
2018-11-13T13:17:27.515Z,65
2018-11-13T13:17:59.605Z,75
2018-11-13T13:18:31.673Z,75
2018-11-13T13:19:03.879Z,60
2018-11-13T13:19:35.894Z,50
2018-11-13T13:20:07.988Z,45
2018-11-13T13:20:40.084Z,40
2018-11-13T13:21:12.141Z,35
2018-11-13T13:21:44.267Z,35
2018-11-13T13:22:16.418Z,35
2018-11-13T13:22:48.441Z,35
2018-11-13T13:23:20.499Z,35
2018-11-13T13:23:52.591Z,35
2018-11-13T13:24:24.666Z,35
2018-11-13T13:24:56.754Z,30
2018-11-13T13:26:48.119Z,45
2018-11-13T13:27:20.212Z,55
2018-11-13T13:27:52.313Z,70
2018-11-13T13:28:24.427Z,105
2018-11-13T13:28:56.525Z,155
2018-11-13T13:29:28.598Z,200
2018-11-13T13:30:00.707Z,345
2018-11-13T13:30:32.820Z,975
2018-11-13T13:31:05.143Z,500
2018-11-13T13:31:37.383Z,860
2018-11-13T13:32:09.463Z,420
2018-11-13T13:32:41.585Z,235
2018-11-13T13:34:33.125Z,340
2018-11-13T13:35:05.172Z,940
2018-11-13T13:35:37.271Z,165
2018-11-13T13:36:09.352Z,110
2018-11-13T13:36:41.461Z,95
2018-11-13T13:37:13.580Z,95
2018-11-13T13:37:45.680Z,95
2018-11-13T13:38:17.770Z,90
2018-11-13T13:38:49.908Z,90
2018-11-13T13:39:21.975Z,100
2018-11-13T13:39:54.110Z,110
2018-11-13T13:40:26.222Z,120
2018-11-13T13:43:36.793Z,140
2018-11-13T13:44:08.877Z,165
2018-11-13T13:46:00.497Z,885
2018-11-13T13:47:52.213Z,740
2018-11-13T13:48:24.298Z,835
2018-11-13T13:48:56.376Z,160
2018-11-13T13:49:28.485Z,315
2018-11-13T13:51:20.071Z,705
2018-11-13T13:51:52.159Z,100
2018-11-13T13:52:24.264Z,80
2018-11-13T13:52:56.348Z,55
2018-11-13T13:53:28.434Z,50
2018-11-13T13:55:21.227Z,100
2018-11-13T13:55:52.254Z,90
2018-11-13T13:56:24.369Z,115
2018-11-13T13:56:56.469Z,120
2018-11-13T13:57:28.577Z,115
2018-11-13T13:59:20.035Z,105
2018-11-13T13:59:52.372Z,100
2018-11-13T14:00:24.464Z,425
2018-11-13T14:00:56.473Z,745
2018-11-13T14:01:28.650Z,295
2018-11-13T14:03:20.224Z,635
2018-11-13T14:03:52.325Z,245
2018-11-13T14:04:24.411Z,225
2018-11-13T14:04:56.516Z,475
2018-11-13T14:05:28.599Z,670
2018-11-13T14:06:00.701Z,150
2018-11-13T14:06:32.797Z,640
2018-11-13T14:07:04.876Z,580
2018-11-13T14:07:36.967Z,680
2018-11-13T14:08:09.070Z,440
2018-11-13T14:08:41.249Z,485
2018-11-13T14:10:32.565Z,620
2018-11-13T14:11:04.639Z,615
2018-11-13T14:12:56.244Z,90
2018-11-13T14:13:28.951Z,85
2018-11-13T14:14:01.000Z,80
2018-11-13T14:14:33.114Z,75
2018-11-13T14:15:05.725Z,85
2018-11-13T14:16:56.988Z,180
2018-11-13T14:17:29.083Z,80
2018-11-13T14:18:01.145Z,80
2018-11-13T14:18:38.092Z,80
2018-11-13T14:19:10.171Z,70
2018-11-13T14:19:42.238Z,70
2018-11-13T14:20:14.332Z,70
2018-11-13T14:20:46.475Z,70
2018-11-13T14:21:18.581Z,70
2018-11-13T14:21:50.678Z,95
2018-11-13T14:22:22.798Z,80
2018-11-13T14:22:54.908Z,70
2018-11-13T14:23:27.002Z,75
2018-11-13T14:23:59.092Z,85
2018-11-13T14:24:31.191Z,75
2018-11-13T14:25:03.301Z,70
2018-11-13T14:25:35.376Z,85
2018-11-13T14:26:07.471Z,85
2018-11-13T14:26:39.592Z,75
2018-11-13T14:29:50.665Z,80
2018-11-13T14:30:22.766Z,75
2018-11-13T14:30:54.847Z,65
2018-11-13T14:31:26.973Z,65
2018-11-13T14:31:59.073Z,80
2018-11-13T14:32:31.158Z,75
2018-11-13T14:33:04.029Z,65
2018-11-13T14:33:36.121Z,65
2018-11-13T14:34:08.221Z,60
2018-11-13T14:34:40.318Z,65
2018-11-13T14:35:12.412Z,65
2018-11-13T14:35:44.622Z,65
2018-11-13T14:36:16.647Z,60
2018-11-13T14:36:48.706Z,60
2018-11-13T14:37:20.759Z,60
2018-11-13T14:37:52.796Z,55
2018-11-13T14:38:24.855Z,50
2018-11-13T14:38:56.957Z,55
2018-11-13T14:40:49.553Z,55
2018-11-13T14:41:21.611Z,50
2018-11-13T14:41:53.712Z,50
2018-11-13T14:42:25.786Z,55
2018-11-13T14:42:57.873Z,50
2018-11-13T14:43:29.982Z,50
2018-11-13T14:44:02.073Z,50
2018-11-13T14:44:34.126Z,45
2018-11-13T14:45:06.214Z,45
2018-11-13T14:45:38.303Z,45
2018-11-13T14:46:10.373Z,45
2018-11-13T14:46:42.499Z,45
2018-11-13T14:47:14.546Z,45
2018-11-13T14:47:46.626Z,45
2018-11-13T14:48:18.715Z,45
2018-11-13T14:48:50.792Z,45
2018-11-13T14:49:22.877Z,45
2018-11-13T14:49:54.943Z,40
2018-11-13T14:51:46.332Z,45
2018-11-13T14:52:18.445Z,45
2018-11-13T14:52:50.515Z,45
2018-11-13T14:53:22.630Z,40
2018-11-13T14:53:54.698Z,40
2018-11-13T14:54:26.796Z,40
2018-11-13T14:54:58.870Z,35
2018-11-13T14:55:30.957Z,35
2018-11-13T14:56:03.060Z,35
2018-11-13T14:56:35.123Z,35
2018-11-13T14:57:07.226Z,30
2018-11-13T14:57:39.307Z,30
2018-11-13T14:58:11.334Z,30
2018-11-13T14:58:43.420Z,30
2018-11-13T14:59:15.532Z,30
2018-11-13T14:59:47.635Z,30
2018-11-13T15:00:19.736Z,30
2018-11-13T15:00:51.842Z,25
2018-11-13T15:01:23.997Z,25
2018-11-13T15:01:56.053Z,25
2018-11-13T15:03:47.510Z,25
2018-11-13T15:04:19.634Z,25
2018-11-13T15:06:11.261Z,20
2018-11-13T15:06:43.340Z,20
2018-11-13T15:08:35.034Z,20
2018-11-13T15:09:07.147Z,15
2018-11-13T15:09:39.238Z,15
2018-11-13T15:10:11.283Z,15
2018-11-13T15:10:43.370Z,15
2018-11-13T15:11:15.442Z,15
2018-11-13T15:11:47.541Z,15
2018-11-13T15:12:19.643Z,15
2018-11-13T15:12:51.734Z,10
2018-11-13T15:13:23.815Z,10
2018-11-13T15:13:55.874Z,10
2018-11-13T15:14:27.980Z,10
2018-11-13T15:15:00.147Z,10
2018-11-13T15:15:32.182Z,10
2018-11-13T15:16:04.335Z,10
2018-11-13T15:16:36.446Z,10
2018-11-13T15:17:08.550Z,10
2018-11-13T15:19:00.116Z,10
2018-11-13T15:19:32.211Z,10
2018-11-13T15:20:04.314Z,10
2018-11-13T15:20:36.416Z,10
2018-11-13T15:21:08.490Z,10
2018-11-13T15:21:40.542Z,10
2018-11-13T15:22:12.660Z,10
2018-11-13T15:22:44.743Z,10
2018-11-13T15:24:36.163Z,10
2018-11-13T15:25:08.216Z,10
2018-11-13T15:25:40.312Z,10
2018-11-13T15:26:12.408Z,10
2018-11-13T15:26:44.538Z,10
2018-11-13T15:27:16.631Z,10
2018-11-13T15:27:48.710Z,10
2018-11-13T15:28:20.817Z,10
2018-11-13T15:31:32.111Z,5
2018-11-13T15:32:04.219Z,5
2018-11-13T15:32:36.315Z,5
2018-11-13T15:33:08.372Z,5
2018-11-13T15:33:40.471Z,5
2018-11-13T15:34:12.571Z,5
2018-11-13T15:34:44.666Z,5
2018-11-13T15:35:16.721Z,5
2018-11-13T15:35:48.840Z,5
2018-11-13T15:36:20.934Z,5
2018-11-13T15:38:12.687Z,5
2018-11-13T15:38:44.810Z,5
2018-11-13T15:39:16.865Z,5
2018-11-13T15:39:48.957Z,0
2018-11-13T15:40:21.024Z,0
2018-11-13T15:40:53.109Z,0
2018-11-13T15:41:25.200Z,0
2018-11-13T15:41:57.238Z,0
2018-11-13T15:42:29.315Z,0
2018-11-13T15:43:01.418Z,0
2018-11-13T15:43:33.516Z,0
2018-11-13T15:44:05.608Z,0
2018-11-13T15:44:37.772Z,0
2018-11-13T15:46:29.014Z,0
2018-11-13T15:47:01.106Z,0
2018-11-13T15:47:33.328Z,0
2018-11-13T15:48:05.342Z,0
2018-11-13T15:48:37.429Z,0
2018-11-13T15:49:09.526Z,0
2018-11-13T15:49:41.639Z,0
2018-11-13T15:50:13.721Z,0
2018-11-13T15:50:45.810Z,0
2018-11-13T15:51:17.956Z,0
2018-11-13T15:51:50.080Z,0
2018-11-13T15:52:22.249Z,0
2018-11-13T15:54:13.861Z,0
2018-11-13T15:54:45.944Z,0
2018-11-13T15:55:17.993Z,0
2018-11-13T15:55:50.099Z,0
2018-11-13T15:56:22.186Z,0
2018-11-13T15:56:54.284Z,0
2018-11-13T15:57:26.346Z,0
2018-11-13T15:57:58.443Z,0
2018-11-13T15:58:30.590Z,0
2018-11-13T15:59:02.616Z,0
2018-11-13T15:59:34.673Z,0
2018-11-13T16:01:26.026Z,0
2018-11-13T16:01:58.115Z,0
2018-11-13T16:02:30.198Z,0
2018-11-13T16:03:02.342Z,0
2018-11-13T16:04:53.627Z,0
2018-11-13T16:05:25.728Z,0
2018-11-13T16:05:57.841Z,0
2018-11-13T16:06:29.968Z,0
2018-11-13T16:07:01.839Z,0
2018-11-13T16:07:33.930Z,0
2018-11-13T16:08:06.023Z,0
2018-11-13T16:08:38.111Z,0
2018-11-13T16:09:10.263Z,0
2018-11-13T16:09:42.335Z,0
2018-11-13T16:10:14.441Z,0
2018-11-13T16:10:46.486Z,0
2018-11-13T16:11:18.580Z,0
2018-11-13T16:11:50.649Z,0
2018-11-13T16:12:22.807Z,0
2018-11-13T16:12:54.848Z,0
2018-11-13T16:13:26.946Z,0
2018-11-13T16:13:59.000Z,0
2018-11-13T16:14:31.106Z,0
2018-11-13T16:15:03.237Z,0
2018-11-13T16:15:35.288Z,0
2018-11-13T16:16:07.487Z,0
2018-11-13T16:16:39.591Z,0
2018-11-13T16:17:11.672Z,0
2018-11-13T16:17:43.694Z,0
2018-11-13T16:19:35.173Z,0
2018-11-13T16:20:07.288Z,0
2018-11-13T16:21:58.793Z,0
2018-11-13T16:22:30.916Z,0
2018-11-13T16:23:02.988Z,0
2018-11-13T16:23:35.073Z,0
2018-11-13T16:24:07.126Z,0
2018-11-13T16:24:39.196Z,0
2018-11-13T16:25:11.294Z,0
2018-11-13T16:27:02.643Z,0
2018-11-13T16:30:13.414Z,0
2018-11-13T16:32:05.074Z,0
2018-11-13T16:32:37.170Z,0
2018-11-13T16:33:09.303Z,0